sensor_id;sensor_type;location;lat;lon;timestamp;pressure;altitude;pressure_sealevel;temperature;humidity
76137;BME280;68622;53.128;17.966;2024-01-25T00:01:19;100316.31;;;7.69;71.38
76137;BME280;68622;53.128;17.966;2024-01-25T00:03:45;100322.27;;;7.59;71.58
76137;BME280;68622;53.128;17.966;2024-01-25T00:06:11;100323.85;;;7.57;71.75
76137;BME280;68622;53.128;17.966;2024-01-25T00:08:37;100330.28;;;7.53;72.08
76137;BME280;68622;53.128;17.966;2024-01-25T00:11:04;100330.81;;;7.58;71.96
76137;BME280;68622;53.128;17.966;2024-01-25T00:13:30;100332.49;;;7.59;72.01
76137;BME280;68622;53.128;17.966;2024-01-25T00:15:56;100330.48;;;7.55;72.06
76137;BME280;68622;53.128;17.966;2024-01-25T00:18:23;100335.35;;;7.56;72.12
76137;BME280;68622;53.128;17.966;2024-01-25T00:20:48;100333.73;;;7.53;72.20
76137;BME280;68622;53.128;17.966;2024-01-25T00:23:14;100332.83;;;7.49;72.46
76137;BME280;68622;53.128;17.966;2024-01-25T00:25:40;100331.65;;;7.48;72.53
76137;BME280;68622;53.128;17.966;2024-01-25T00:28:06;100326.92;;;7.47;72.63
76137;BME280;68622;53.128;17.966;2024-01-25T00:30:32;100326.26;;;7.47;72.41
76137;BME280;68622;53.128;17.966;2024-01-25T00:32:58;100325.05;;;7.43;72.84
76137;BME280;68622;53.128;17.966;2024-01-25T00:35:24;100326.95;;;7.42;72.87
76137;BME280;68622;53.128;17.966;2024-01-25T00:37:51;100327.55;;;7.40;73.04
76137;BME280;68622;53.128;17.966;2024-01-25T00:40:17;100326.67;;;7.44;72.73
76137;BME280;68622;53.128;17.966;2024-01-25T00:42:45;100325.56;;;7.41;72.94
76137;BME280;68622;53.128;17.966;2024-01-25T00:45:15;100328.23;;;7.44;72.74
76137;BME280;68622;53.128;17.966;2024-01-25T00:47:41;100330.39;;;7.39;72.73
76137;BME280;68622;53.128;17.966;2024-01-25T00:50:07;100330.91;;;7.39;72.59
76137;BME280;68622;53.128;17.966;2024-01-25T00:52:33;100327.95;;;7.33;72.64
76137;BME280;68622;53.128;17.966;2024-01-25T00:54:59;100334.96;;;7.35;72.63
76137;BME280;68622;53.128;17.966;2024-01-25T00:57:25;100331.44;;;7.34;72.68
76137;BME280;68622;53.128;17.966;2024-01-25T00:59:51;100333.80;;;7.33;72.60
76137;BME280;68622;53.128;17.966;2024-01-25T01:02:20;100335.93;;;7.36;72.31
76137;BME280;68622;53.128;17.966;2024-01-25T01:04:47;100335.67;;;7.35;71.93
76137;BME280;68622;53.128;17.966;2024-01-25T01:07:13;100330.51;;;7.26;71.94
76137;BME280;68622;53.128;17.966;2024-01-25T01:09:39;100328.92;;;7.31;71.94
76137;BME280;68622;53.128;17.966;2024-01-25T01:12:06;100330.06;;;7.30;71.97
76137;BME280;68622;53.128;17.966;2024-01-25T01:14:33;100331.30;;;7.42;71.66
76137;BME280;68622;53.128;17.966;2024-01-25T01:16:59;100336.45;;;7.38;71.47
76137;BME280;68622;53.128;17.966;2024-01-25T01:19:24;100336.05;;;7.37;71.44
76137;BME280;68622;53.128;17.966;2024-01-25T01:21:50;100328.04;;;7.34;71.60
76137;BME280;68622;53.128;17.966;2024-01-25T01:24:16;100339.14;;;7.35;71.10
76137;BME280;68622;53.128;17.966;2024-01-25T01:26:42;100337.98;;;7.39;71.11
76137;BME280;68622;53.128;17.966;2024-01-25T01:29:08;100338.59;;;7.42;70.98
76137;BME280;68622;53.128;17.966;2024-01-25T01:31:34;100347.27;;;7.39;70.80
76137;BME280;68622;53.128;17.966;2024-01-25T01:34:00;100345.06;;;7.35;70.68
76137;BME280;68622;53.128;17.966;2024-01-25T01:36:26;100344.04;;;7.38;70.78
76137;BME280;68622;53.128;17.966;2024-01-25T01:38:52;100343.71;;;7.38;70.74
76137;BME280;68622;53.128;17.966;2024-01-25T01:41:18;100339.98;;;7.33;70.75
76137;BME280;68622;53.128;17.966;2024-01-25T01:43:44;100343.76;;;7.31;70.84
76137;BME280;68622;53.128;17.966;2024-01-25T01:46:12;100341.80;;;7.28;70.92
76137;BME280;68622;53.128;17.966;2024-01-25T01:48:41;100335.31;;;7.27;71.08
76137;BME280;68622;53.128;17.966;2024-01-25T01:51:08;100337.41;;;7.22;71.26
76137;BME280;68622;53.128;17.966;2024-01-25T01:53:34;100329.58;;;7.23;70.96
76137;BME280;68622;53.128;17.966;2024-01-25T01:56:01;100336.92;;;7.22;71.10
76137;BME280;68622;53.128;17.966;2024-01-25T01:58:28;100341.36;;;7.27;71.00
76137;BME280;68622;53.128;17.966;2024-01-25T02:00:55;100339.10;;;7.31;70.91
76137;BME280;68622;53.128;17.966;2024-01-25T02:03:21;100339.86;;;7.24;70.82
76137;BME280;68622;53.128;17.966;2024-01-25T02:05:47;100349.02;;;7.19;70.84
76137;BME280;68622;53.128;17.966;2024-01-25T02:08:14;100347.16;;;7.19;70.75
76137;BME280;68622;53.128;17.966;2024-01-25T02:10:40;100339.24;;;7.25;70.53
76137;BME280;68622;53.128;17.966;2024-01-25T02:13:06;100338.44;;;7.31;70.34
76137;BME280;68622;53.128;17.966;2024-01-25T02:15:32;100338.86;;;7.23;70.40
76137;BME280;68622;53.128;17.966;2024-01-25T02:17:58;100341.17;;;7.16;70.30
76137;BME280;68622;53.128;17.966;2024-01-25T02:20:24;100339.70;;;7.15;70.71
76137;BME280;68622;53.128;17.966;2024-01-25T02:22:50;100340.90;;;7.13;70.49
76137;BME280;68622;53.128;17.966;2024-01-25T02:25:16;100340.15;;;7.06;70.61
76137;BME280;68622;53.128;17.966;2024-01-25T02:27:42;100336.00;;;7.08;70.45
76137;BME280;68622;53.128;17.966;2024-01-25T02:30:08;100338.63;;;7.18;70.45
76137;BME280;68622;53.128;17.966;2024-01-25T02:32:34;100335.83;;;7.10;70.20
76137;BME280;68622;53.128;17.966;2024-01-25T02:35:00;100339.61;;;7.12;70.30
76137;BME280;68622;53.128;17.966;2024-01-25T02:37:26;100346.92;;;7.11;70.36
76137;BME280;68622;53.128;17.966;2024-01-25T02:39:53;100352.88;;;7.14;70.14
76137;BME280;68622;53.128;17.966;2024-01-25T02:42:19;100347.24;;;7.11;70.48
76137;BME280;68622;53.128;17.966;2024-01-25T02:44:45;100348.74;;;7.04;70.81
76137;BME280;68622;53.128;17.966;2024-01-25T02:47:11;100341.56;;;7.03;70.72
76137;BME280;68622;53.128;17.966;2024-01-25T02:49:37;100347.40;;;7.05;70.69
76137;BME280;68622;53.128;17.966;2024-01-25T02:52:03;100349.50;;;7.09;70.80
76137;BME280;68622;53.128;17.966;2024-01-25T02:54:29;100346.10;;;7.04;71.27
76137;BME280;68622;53.128;17.966;2024-01-25T02:56:55;100351.56;;;7.05;71.18
76137;BME280;68622;53.128;17.966;2024-01-25T02:59:21;100348.52;;;7.02;71.57
76137;BME280;68622;53.128;17.966;2024-01-25T03:01:47;100348.44;;;7.03;71.69
76137;BME280;68622;53.128;17.966;2024-01-25T03:04:13;100337.92;;;7.03;71.82
76137;BME280;68622;53.128;17.966;2024-01-25T03:06:39;100339.86;;;6.96;72.42
76137;BME280;68622;53.128;17.966;2024-01-25T03:09:05;100341.27;;;6.98;72.16
76137;BME280;68622;53.128;17.966;2024-01-25T03:11:31;100342.77;;;6.83;72.41
76137;BME280;68622;53.128;17.966;2024-01-25T03:13:58;100350.80;;;6.84;72.75
76137;BME280;68622;53.128;17.966;2024-01-25T03:16:24;100347.16;;;6.86;72.43
76137;BME280;68622;53.128;17.966;2024-01-25T03:18:50;100359.02;;;6.87;72.61
76137;BME280;68622;53.128;17.966;2024-01-25T03:21:15;100360.17;;;6.92;72.58
76137;BME280;68622;53.128;17.966;2024-01-25T03:23:41;100362.19;;;6.88;72.58
76137;BME280;68622;53.128;17.966;2024-01-25T03:26:07;100361.10;;;6.91;72.50
76137;BME280;68622;53.128;17.966;2024-01-25T03:28:36;100358.98;;;6.90;72.52
76137;BME280;68622;53.128;17.966;2024-01-25T03:31:03;100368.98;;;6.90;72.74
76137;BME280;68622;53.128;17.966;2024-01-25T03:33:29;100374.55;;;6.82;73.10
76137;BME280;68622;53.128;17.966;2024-01-25T03:36:05;100375.51;;;6.83;73.24
76137;BME280;68622;53.128;17.966;2024-01-25T03:38:31;100378.52;;;6.84;73.08
76137;BME280;68622;53.128;17.966;2024-01-25T03:40:57;100379.36;;;6.78;73.26
76137;BME280;68622;53.128;17.966;2024-01-25T03:43:25;100377.06;;;6.79;73.51
76137;BME280;68622;53.128;17.966;2024-01-25T03:45:51;100390.20;;;6.78;73.39
76137;BME280;68622;53.128;17.966;2024-01-25T03:48:17;100391.04;;;6.79;73.35
76137;BME280;68622;53.128;17.966;2024-01-25T03:50:43;100396.20;;;6.74;73.71
76137;BME280;68622;53.128;17.966;2024-01-25T03:53:09;100390.16;;;6.70;73.80
76137;BME280;68622;53.128;17.966;2024-01-25T03:55:35;100399.13;;;6.70;73.87
76137;BME280;68622;53.128;17.966;2024-01-25T03:58:01;100397.41;;;6.70;73.82
76137;BME280;68622;53.128;17.966;2024-01-25T04:00:27;100397.77;;;6.74;73.72
76137;BME280;68622;53.128;17.966;2024-01-25T04:02:53;100397.55;;;6.77;73.47
76137;BME280;68622;53.128;17.966;2024-01-25T04:05:18;100398.75;;;6.70;73.84
76137;BME280;68622;53.128;17.966;2024-01-25T04:07:44;100400.55;;;6.63;74.27
76137;BME280;68622;53.128;17.966;2024-01-25T04:10:10;100402.64;;;6.69;73.85
76137;BME280;68622;53.128;17.966;2024-01-25T04:12:36;100395.54;;;6.69;73.89
76137;BME280;68622;53.128;17.966;2024-01-25T04:15:02;100390.92;;;6.76;73.71
76137;BME280;68622;53.128;17.966;2024-01-25T04:17:28;100392.36;;;6.73;73.88
76137;BME280;68622;53.128;17.966;2024-01-25T04:19:54;100395.09;;;6.71;73.95
76137;BME280;68622;53.128;17.966;2024-01-25T04:22:20;100391.85;;;6.70;73.92
76137;BME280;68622;53.128;17.966;2024-01-25T04:24:46;100400.98;;;6.71;74.29
76137;BME280;68622;53.128;17.966;2024-01-25T04:27:14;100395.23;;;6.69;73.98
76137;BME280;68622;53.128;17.966;2024-01-25T04:29:40;100407.17;;;6.75;73.73
76137;BME280;68622;53.128;17.966;2024-01-25T04:32:07;100417.10;;;6.67;74.05
76137;BME280;68622;53.128;17.966;2024-01-25T04:34:35;100420.13;;;6.70;74.19
76137;BME280;68622;53.128;17.966;2024-01-25T04:37:01;100426.99;;;6.69;74.56
76137;BME280;68622;53.128;17.966;2024-01-25T04:39:27;100427.89;;;6.68;74.51
76137;BME280;68622;53.128;17.966;2024-01-25T04:41:53;100423.44;;;6.68;74.51
76137;BME280;68622;53.128;17.966;2024-01-25T04:44:19;100426.20;;;6.70;74.58
76137;BME280;68622;53.128;17.966;2024-01-25T04:46:45;100427.30;;;6.65;74.80
76137;BME280;68622;53.128;17.966;2024-01-25T04:49:11;100430.43;;;6.62;75.03
76137;BME280;68622;53.128;17.966;2024-01-25T04:51:37;100438.36;;;6.64;74.98
76137;BME280;68622;53.128;17.966;2024-01-25T04:54:03;100437.95;;;6.56;75.27
76137;BME280;68622;53.128;17.966;2024-01-25T04:56:29;100435.81;;;6.59;75.32
76137;BME280;68622;53.128;17.966;2024-01-25T04:58:55;100447.79;;;6.67;75.32
76137;BME280;68622;53.128;17.966;2024-01-25T05:01:20;100444.21;;;6.67;75.18
76137;BME280;68622;53.128;17.966;2024-01-25T05:03:47;100443.98;;;6.74;74.91
76137;BME280;68622;53.128;17.966;2024-01-25T05:06:13;100440.30;;;6.73;75.23
76137;BME280;68622;53.128;17.966;2024-01-25T05:08:42;100440.48;;;6.70;75.27
76137;BME280;68622;53.128;17.966;2024-01-25T05:11:08;100444.63;;;6.68;75.31
76137;BME280;68622;53.128;17.966;2024-01-25T05:13:34;100443.39;;;6.68;75.54
76137;BME280;68622;53.128;17.966;2024-01-25T05:16:01;100451.31;;;6.73;75.40
76137;BME280;68622;53.128;17.966;2024-01-25T05:18:26;100455.52;;;6.70;75.61
76137;BME280;68622;53.128;17.966;2024-01-25T05:20:52;100455.11;;;6.73;75.53
76137;BME280;68622;53.128;17.966;2024-01-25T05:23:18;100458.20;;;6.66;75.83
76137;BME280;68622;53.128;17.966;2024-01-25T05:25:44;100457.27;;;6.72;75.60
76137;BME280;68622;53.128;17.966;2024-01-25T05:28:10;100457.10;;;6.69;75.76
76137;BME280;68622;53.128;17.966;2024-01-25T05:30:36;100452.40;;;6.74;75.63
76137;BME280;68622;53.128;17.966;2024-01-25T05:33:02;100453.52;;;6.71;75.79
76137;BME280;68622;53.128;17.966;2024-01-25T05:35:28;100463.23;;;6.77;75.66
76137;BME280;68622;53.128;17.966;2024-01-25T05:37:54;100468.26;;;6.70;76.07
76137;BME280;68622;53.128;17.966;2024-01-25T05:40:20;100468.40;;;6.70;76.15
76137;BME280;68622;53.128;17.966;2024-01-25T05:42:46;100467.54;;;6.73;76.06
76137;BME280;68622;53.128;17.966;2024-01-25T05:45:12;100475.73;;;6.73;75.90
76137;BME280;68622;53.128;17.966;2024-01-25T05:47:38;100478.02;;;6.77;75.56
76137;BME280;68622;53.128;17.966;2024-01-25T05:50:05;100479.08;;;6.79;75.50
76137;BME280;68622;53.128;17.966;2024-01-25T05:52:31;100477.45;;;6.76;75.88
76137;BME280;68622;53.128;17.966;2024-01-25T05:54:58;100477.72;;;6.75;75.85
76137;BME280;68622;53.128;17.966;2024-01-25T05:57:24;100482.93;;;6.78;75.44
76137;BME280;68622;53.128;17.966;2024-01-25T05:59:50;100483.33;;;6.84;75.21
76137;BME280;68622;53.128;17.966;2024-01-25T06:02:16;100488.58;;;6.77;75.28
76137;BME280;68622;53.128;17.966;2024-01-25T06:04:42;100483.62;;;6.83;75.15
76137;BME280;68622;53.128;17.966;2024-01-25T06:07:07;100482.66;;;6.84;74.92
76137;BME280;68622;53.128;17.966;2024-01-25T06:09:33;100489.74;;;6.86;74.83
76137;BME280;68622;53.128;17.966;2024-01-25T06:11:59;100495.50;;;6.81;75.12
76137;BME280;68622;53.128;17.966;2024-01-25T06:14:25;100498.79;;;6.90;74.72
76137;BME280;68622;53.128;17.966;2024-01-25T06:16:51;100509.08;;;6.84;74.75
76137;BME280;68622;53.128;17.966;2024-01-25T06:19:17;100515.44;;;6.93;74.63
76137;BME280;68622;53.128;17.966;2024-01-25T06:21:43;100523.27;;;6.95;74.15
76137;BME280;68622;53.128;17.966;2024-01-25T06:24:10;100528.86;;;6.98;74.11
76137;BME280;68622;53.128;17.966;2024-01-25T06:26:39;100529.27;;;6.97;73.96
76137;BME280;68622;53.128;17.966;2024-01-25T06:29:11;100527.69;;;7.02;73.83
76137;BME280;68622;53.128;17.966;2024-01-25T06:31:43;100538.10;;;6.99;73.82
76137;BME280;68622;53.128;17.966;2024-01-25T06:34:10;100532.85;;;7.04;73.55
76137;BME280;68622;53.128;17.966;2024-01-25T06:36:37;100530.39;;;7.05;73.42
76137;BME280;68622;53.128;17.966;2024-01-25T06:39:03;100534.65;;;7.08;73.35
76137;BME280;68622;53.128;17.966;2024-01-25T06:41:35;100531.76;;;6.99;73.43
76137;BME280;68622;53.128;17.966;2024-01-25T06:44:02;100534.27;;;7.02;73.35
76137;BME280;68622;53.128;17.966;2024-01-25T06:46:29;100524.91;;;7.02;73.29
76137;BME280;68622;53.128;17.966;2024-01-25T06:48:55;100523.14;;;7.01;73.31
76137;BME280;68622;53.128;17.966;2024-01-25T06:51:21;100528.02;;;7.02;72.86
76137;BME280;68622;53.128;17.966;2024-01-25T06:53:48;100528.13;;;7.05;72.92
76137;BME280;68622;53.128;17.966;2024-01-25T06:56:14;100530.38;;;7.12;72.79
76137;BME280;68622;53.128;17.966;2024-01-25T06:58:40;100541.27;;;7.09;72.81
76137;BME280;68622;53.128;17.966;2024-01-25T07:01:06;100551.16;;;7.06;72.84
76137;BME280;68622;53.128;17.966;2024-01-25T07:03:32;100560.81;;;7.09;72.65
76137;BME280;68622;53.128;17.966;2024-01-25T07:05:58;100568.58;;;7.13;72.62
76137;BME280;68622;53.128;17.966;2024-01-25T07:08:24;100576.42;;;7.07;72.51
76137;BME280;68622;53.128;17.966;2024-01-25T07:10:50;100582.85;;;7.05;72.75
76137;BME280;68622;53.128;17.966;2024-01-25T07:13:15;100592.27;;;7.08;72.86
76137;BME280;68622;53.128;17.966;2024-01-25T07:15:42;100592.73;;;7.09;72.61
76137;BME280;68622;53.128;17.966;2024-01-25T07:18:08;100601.98;;;7.09;72.69
76137;BME280;68622;53.128;17.966;2024-01-25T07:20:34;100602.85;;;7.09;72.56
76137;BME280;68622;53.128;17.966;2024-01-25T07:23:01;100612.97;;;7.10;72.75
76137;BME280;68622;53.128;17.966;2024-01-25T07:25:27;100613.19;;;7.11;72.54
76137;BME280;68622;53.128;17.966;2024-01-25T07:27:53;100615.50;;;7.11;72.66
76137;BME280;68622;53.128;17.966;2024-01-25T07:30:19;100619.27;;;7.13;72.65
76137;BME280;68622;53.128;17.966;2024-01-25T07:32:45;100627.01;;;7.18;72.56
76137;BME280;68622;53.128;17.966;2024-01-25T07:35:12;100632.56;;;7.18;72.63
76137;BME280;68622;53.128;17.966;2024-01-25T07:37:39;100636.72;;;7.15;72.71
76137;BME280;68622;53.128;17.966;2024-01-25T07:40:10;100641.94;;;7.17;72.58
76137;BME280;68622;53.128;17.966;2024-01-25T07:42:36;100652.02;;;7.11;72.74
76137;BME280;68622;53.128;17.966;2024-01-25T07:45:02;100658.40;;;7.18;72.37
76137;BME280;68622;53.128;17.966;2024-01-25T07:47:28;100663.02;;;7.19;72.27
76137;BME280;68622;53.128;17.966;2024-01-25T07:49:55;100669.73;;;7.21;72.29
76137;BME280;68622;53.128;17.966;2024-01-25T07:52:21;100675.43;;;7.14;72.53
76137;BME280;68622;53.128;17.966;2024-01-25T07:54:47;100678.80;;;7.13;72.68
76137;BME280;68622;53.128;17.966;2024-01-25T07:57:13;100685.19;;;7.06;72.83
76137;BME280;68622;53.128;17.966;2024-01-25T07:59:39;100686.19;;;7.09;72.78
76137;BME280;68622;53.128;17.966;2024-01-25T08:02:05;100687.19;;;7.16;72.75
76137;BME280;68622;53.128;17.966;2024-01-25T08:04:31;100692.42;;;7.20;72.70
76137;BME280;68622;53.128;17.966;2024-01-25T08:06:58;100694.38;;;7.19;72.43
76137;BME280;68622;53.128;17.966;2024-01-25T08:09:24;100699.39;;;7.19;72.40
76137;BME280;68622;53.128;17.966;2024-01-25T08:11:50;100705.05;;;7.17;72.25
76137;BME280;68622;53.128;17.966;2024-01-25T08:14:17;100710.27;;;7.21;71.90
76137;BME280;68622;53.128;17.966;2024-01-25T08:16:43;100716.21;;;7.20;71.83
76137;BME280;68622;53.128;17.966;2024-01-25T08:19:09;100721.29;;;7.26;71.78
76137;BME280;68622;53.128;17.966;2024-01-25T08:21:34;100726.11;;;7.19;71.51
76137;BME280;68622;53.128;17.966;2024-01-25T08:24:02;100728.75;;;7.23;71.16
76137;BME280;68622;53.128;17.966;2024-01-25T08:26:28;100730.70;;;7.25;71.11
76137;BME280;68622;53.128;17.966;2024-01-25T08:28:54;100732.80;;;7.24;70.89
76137;BME280;68622;53.128;17.966;2024-01-25T08:31:20;100739.40;;;7.28;70.42
76137;BME280;68622;53.128;17.966;2024-01-25T08:33:45;100744.09;;;7.26;70.52
76137;BME280;68622;53.128;17.966;2024-01-25T08:36:16;100752.36;;;7.31;70.21
76137;BME280;68622;53.128;17.966;2024-01-25T08:38:42;100752.64;;;7.24;70.04
76137;BME280;68622;53.128;17.966;2024-01-25T08:41:08;100764.05;;;7.31;69.96
76137;BME280;68622;53.128;17.966;2024-01-25T08:43:37;100769.30;;;7.33;69.72
76137;BME280;68622;53.128;17.966;2024-01-25T08:46:03;100771.04;;;7.37;69.71
76137;BME280;68622;53.128;17.966;2024-01-25T08:48:29;100771.66;;;7.40;69.30
76137;BME280;68622;53.128;17.966;2024-01-25T08:50:55;100774.40;;;7.47;69.42
76137;BME280;68622;53.128;17.966;2024-01-25T08:53:21;100781.92;;;7.46;69.38
76137;BME280;68622;53.128;17.966;2024-01-25T08:55:54;100790.02;;;7.46;69.24
76137;BME280;68622;53.128;17.966;2024-01-25T08:58:20;100791.65;;;7.45;69.27
76137;BME280;68622;53.128;17.966;2024-01-25T09:00:47;100800.71;;;7.51;69.19
76137;BME280;68622;53.128;17.966;2024-01-25T09:03:16;100807.38;;;7.49;69.07
76137;BME280;68622;53.128;17.966;2024-01-25T09:05:42;100808.36;;;7.50;69.09
76137;BME280;68622;53.128;17.966;2024-01-25T09:08:12;100817.67;;;7.41;69.05
76137;BME280;68622;53.128;17.966;2024-01-25T09:10:40;100818.67;;;7.46;68.88
76137;BME280;68622;53.128;17.966;2024-01-25T09:13:06;100829.84;;;7.49;68.58
76137;BME280;68622;53.128;17.966;2024-01-25T09:15:32;100831.29;;;7.51;68.75
76137;BME280;68622;53.128;17.966;2024-01-25T09:17:58;100832.02;;;7.53;68.47
76137;BME280;68622;53.128;17.966;2024-01-25T09:20:24;100827.67;;;7.55;68.16
76137;BME280;68622;53.128;17.966;2024-01-25T09:22:51;100834.19;;;7.60;68.12
76137;BME280;68622;53.128;17.966;2024-01-25T09:25:19;100842.85;;;7.55;68.10
76137;BME280;68622;53.128;17.966;2024-01-25T09:27:45;100848.01;;;7.48;67.99
76137;BME280;68622;53.128;17.966;2024-01-25T09:30:12;100848.71;;;7.53;67.94
76137;BME280;68622;53.128;17.966;2024-01-25T09:32:38;100860.44;;;7.56;68.07
76137;BME280;68622;53.128;17.966;2024-01-25T09:35:04;100864.04;;;7.49;68.15
76137;BME280;68622;53.128;17.966;2024-01-25T09:37:30;100866.00;;;7.53;68.27
76137;BME280;68622;53.128;17.966;2024-01-25T09:39:56;100869.43;;;7.53;68.46
76137;BME280;68622;53.128;17.966;2024-01-25T09:42:24;100875.98;;;7.51;68.39
76137;BME280;68622;53.128;17.966;2024-01-25T09:44:52;100873.84;;;7.47;68.18
76137;BME280;68622;53.128;17.966;2024-01-25T09:47:20;100879.31;;;7.52;68.08
76137;BME280;68622;53.128;17.966;2024-01-25T09:49:47;100881.21;;;7.62;67.87
76137;BME280;68622;53.128;17.966;2024-01-25T09:52:13;100882.84;;;7.58;67.80
76137;BME280;68622;53.128;17.966;2024-01-25T09:54:40;100887.35;;;7.58;67.71
76137;BME280;68622;53.128;17.966;2024-01-25T09:57:12;100887.27;;;7.59;67.66
76137;BME280;68622;53.128;17.966;2024-01-25T09:59:40;100887.91;;;7.57;67.74
76137;BME280;68622;53.128;17.966;2024-01-25T10:02:07;100893.15;;;7.67;67.88
76137;BME280;68622;53.128;17.966;2024-01-25T10:04:34;100899.39;;;7.66;67.58
76137;BME280;68622;53.128;17.966;2024-01-25T10:07:00;100904.55;;;7.69;67.47
76137;BME280;68622;53.128;17.966;2024-01-25T10:09:26;100905.44;;;7.78;67.29
76137;BME280;68622;53.128;17.966;2024-01-25T10:11:53;100910.73;;;7.76;67.10
76137;BME280;68622;53.128;17.966;2024-01-25T10:14:19;100911.29;;;7.87;67.06
76137;BME280;68622;53.128;17.966;2024-01-25T10:16:45;100917.90;;;7.84;66.93
76137;BME280;68622;53.128;17.966;2024-01-25T10:19:12;100916.79;;;7.74;66.86
76137;BME280;68622;53.128;17.966;2024-01-25T10:21:38;100917.89;;;7.82;66.88
76137;BME280;68622;53.128;17.966;2024-01-25T10:24:06;100921.48;;;7.82;66.74
76137;BME280;68622;53.128;17.966;2024-01-25T10:26:34;100923.67;;;7.86;66.70
76137;BME280;68622;53.128;17.966;2024-01-25T10:29:00;100922.27;;;7.79;66.69
76137;BME280;68622;53.128;17.966;2024-01-25T10:31:27;100938.46;;;7.77;66.81
76137;BME280;68622;53.128;17.966;2024-01-25T10:33:55;100938.46;;;7.82;66.94
76137;BME280;68622;53.128;17.966;2024-01-25T10:36:21;100943.08;;;7.76;66.95
76137;BME280;68622;53.128;17.966;2024-01-25T10:38:48;100946.23;;;7.75;66.70
76137;BME280;68622;53.128;17.966;2024-01-25T10:41:16;100942.40;;;7.71;66.67
76137;BME280;68622;53.128;17.966;2024-01-25T10:43:43;100946.35;;;7.73;66.60
76137;BME280;68622;53.128;17.966;2024-01-25T10:46:10;100952.56;;;7.69;66.54
76137;BME280;68622;53.128;17.966;2024-01-25T10:48:37;100951.25;;;7.75;66.54
76137;BME280;68622;53.128;17.966;2024-01-25T10:51:04;100957.90;;;7.61;66.59
76137;BME280;68622;53.128;17.966;2024-01-25T10:53:33;100960.49;;;7.74;66.29
76137;BME280;68622;53.128;17.966;2024-01-25T10:56:00;100961.93;;;7.77;66.49
76137;BME280;68622;53.128;17.966;2024-01-25T10:58:31;100957.84;;;7.81;66.14
76137;BME280;68622;53.128;17.966;2024-01-25T11:00:57;100955.97;;;7.90;66.27
76137;BME280;68622;53.128;17.966;2024-01-25T11:03:29;100955.95;;;7.90;66.10
76137;BME280;68622;53.128;17.966;2024-01-25T11:06:11;100953.90;;;7.93;66.04
76137;BME280;68622;53.128;17.966;2024-01-25T11:08:38;100956.13;;;8.09;65.70
76137;BME280;68622;53.128;17.966;2024-01-25T11:11:10;100958.69;;;8.07;65.42
76137;BME280;68622;53.128;17.966;2024-01-25T11:13:40;100962.27;;;8.17;65.68
76137;BME280;68622;53.128;17.966;2024-01-25T11:18:52;100972.97;;;8.06;65.49
76137;BME280;68622;53.128;17.966;2024-01-25T11:21:29;100973.33;;;7.99;65.65
76137;BME280;68622;53.128;17.966;2024-01-25T11:24:02;100981.13;;;8.05;65.69
76137;BME280;68622;53.128;17.966;2024-01-25T11:26:29;100987.98;;;7.99;65.67
76137;BME280;68622;53.128;17.966;2024-01-25T11:28:56;100991.84;;;7.98;65.75
76137;BME280;68622;53.128;17.966;2024-01-25T11:31:22;100995.92;;;7.92;65.83
76137;BME280;68622;53.128;17.966;2024-01-25T11:33:50;101007.79;;;7.90;65.83
76137;BME280;68622;53.128;17.966;2024-01-25T11:36:20;101008.89;;;7.82;65.95
76137;BME280;68622;53.128;17.966;2024-01-25T11:38:46;101010.95;;;7.82;65.99
76137;BME280;68622;53.128;17.966;2024-01-25T11:41:12;101019.00;;;7.85;66.08
76137;BME280;68622;53.128;17.966;2024-01-25T11:43:38;101019.20;;;7.83;66.26
76137;BME280;68622;53.128;17.966;2024-01-25T11:46:04;101024.86;;;7.86;66.07
76137;BME280;68622;53.128;17.966;2024-01-25T11:48:30;101034.31;;;7.77;66.25
76137;BME280;68622;53.128;17.966;2024-01-25T11:51:00;101038.33;;;7.71;66.52
76137;BME280;68622;53.128;17.966;2024-01-25T11:53:26;101042.21;;;7.65;66.53
76137;BME280;68622;53.128;17.966;2024-01-25T11:55:53;101045.64;;;7.68;66.57
76137;BME280;68622;53.128;17.966;2024-01-25T11:58:21;101049.55;;;7.71;66.54
76137;BME280;68622;53.128;17.966;2024-01-25T12:00:48;101050.48;;;7.66;66.76
76137;BME280;68622;53.128;17.966;2024-01-25T12:03:14;101058.64;;;7.52;67.01
76137;BME280;68622;53.128;17.966;2024-01-25T12:05:41;101061.08;;;7.55;67.09
76137;BME280;68622;53.128;17.966;2024-01-25T12:08:13;101063.06;;;7.51;67.58
76137;BME280;68622;53.128;17.966;2024-01-25T12:10:39;101070.19;;;7.45;67.95
76137;BME280;68622;53.128;17.966;2024-01-25T12:13:07;101078.52;;;7.40;68.28
76137;BME280;68622;53.128;17.966;2024-01-25T12:15:35;101085.02;;;7.33;68.78
76137;BME280;68622;53.128;17.966;2024-01-25T12:18:01;101090.37;;;7.33;68.88
76137;BME280;68622;53.128;17.966;2024-01-25T12:20:28;101095.59;;;7.35;68.82
76137;BME280;68622;53.128;17.966;2024-01-25T12:22:54;101101.60;;;7.33;69.04
76137;BME280;68622;53.128;17.966;2024-01-25T12:25:20;101103.80;;;7.29;69.40
76137;BME280;68622;53.128;17.966;2024-01-25T12:27:47;101104.17;;;7.28;69.45
76137;BME280;68622;53.128;17.966;2024-01-25T12:30:15;101108.80;;;7.26;69.60
76137;BME280;68622;53.128;17.966;2024-01-25T12:32:41;101111.21;;;7.32;69.36
76137;BME280;68622;53.128;17.966;2024-01-25T12:35:07;101115.20;;;7.26;70.03
76137;BME280;68622;53.128;17.966;2024-01-25T12:37:34;101119.86;;;7.23;70.11
76137;BME280;68622;53.128;17.966;2024-01-25T12:40:00;101123.38;;;7.20;70.33
76137;BME280;68622;53.128;17.966;2024-01-25T12:42:27;101125.14;;;7.22;70.65
76137;BME280;68622;53.128;17.966;2024-01-25T12:44:54;101126.70;;;7.27;70.38
76137;BME280;68622;53.128;17.966;2024-01-25T12:47:20;101134.77;;;7.30;70.34
76137;BME280;68622;53.128;17.966;2024-01-25T12:49:46;101138.92;;;7.27;70.66